createdAt,value
2019-03-08T00:00:24.924Z,8.50
2019-03-08T00:01:01.723Z,8.50
2019-03-08T00:01:35.565Z,8.50
2019-03-08T00:02:09.956Z,8.50
2019-03-08T00:02:42.449Z,8.50
2019-03-08T00:03:15.048Z,8.50
2019-03-08T00:03:54.097Z,8.50
2019-03-08T00:04:27.107Z,8.50
2019-03-08T00:05:01.417Z,8.50
2019-03-08T00:05:34.325Z,8.50
2019-03-08T00:06:06.804Z,8.50
2019-03-08T00:06:39.607Z,8.50
2019-03-08T00:07:18.967Z,8.50
2019-03-08T00:07:51.454Z,8.50
2019-03-08T00:08:27.897Z,8.50
2019-03-08T00:09:02.431Z,8.50
2019-03-08T00:09:34.906Z,8.50
2019-03-08T00:10:07.577Z,8.50
2019-03-08T00:10:40.826Z,8.50
2019-03-08T00:11:15.923Z,8.50
2019-03-08T00:11:48.405Z,8.60
2019-03-08T00:12:23.834Z,8.60
2019-03-08T00:12:57.748Z,8.60
2019-03-08T00:13:32.273Z,8.60
2019-03-08T00:14:07.557Z,8.50
2019-03-08T00:14:40.023Z,8.50
2019-03-08T00:15:14.459Z,8.50
2019-03-08T00:15:49.703Z,8.50
2019-03-08T00:16:24.124Z,8.50
2019-03-08T00:16:58.107Z,8.50
2019-03-08T00:17:33.508Z,8.50
2019-03-08T00:18:08.113Z,8.40
2019-03-08T00:18:40.631Z,8.40
2019-03-08T00:19:13.462Z,8.40
2019-03-08T00:19:45.963Z,8.50
2019-03-08T00:20:18.430Z,8.50
2019-03-08T00:20:50.914Z,8.50
2019-03-08T00:21:24.644Z,8.40
2019-03-08T00:21:57.849Z,8.40
2019-03-08T00:22:30.789Z,8.40
2019-03-08T00:23:06.572Z,8.40
2019-03-08T00:23:39.045Z,8.40
2019-03-08T00:24:12.731Z,8.40
2019-03-08T00:24:47.410Z,8.40
2019-03-08T00:25:21.603Z,8.40
2019-03-08T00:25:54.771Z,8.40
2019-03-08T00:26:29.532Z,8.40
2019-03-08T00:27:02.483Z,8.40
2019-03-08T00:27:34.951Z,8.40
2019-03-08T00:28:07.932Z,8.50
2019-03-08T00:28:40.415Z,8.50
2019-03-08T00:29:13.428Z,8.40
2019-03-08T00:29:46.332Z,8.40
2019-03-08T00:30:20.370Z,8.40
2019-03-08T00:30:53.752Z,8.40
2019-03-08T00:31:27.984Z,8.40
2019-03-08T00:32:02.218Z,8.40
2019-03-08T00:32:34.692Z,8.40
2019-03-08T00:33:07.470Z,8.40
2019-03-08T00:33:40.311Z,8.40
2019-03-08T00:34:13.086Z,8.40
2019-03-08T00:34:45.580Z,8.40
2019-03-08T00:35:18.106Z,8.40
2019-03-08T00:35:51.592Z,8.40
2019-03-08T00:36:25.293Z,8.40
2019-03-08T00:36:58.219Z,8.40
2019-03-08T00:37:30.694Z,8.40
2019-03-08T00:38:03.275Z,8.40
2019-03-08T00:38:37.123Z,8.40
2019-03-08T00:39:09.603Z,8.40
2019-03-08T00:39:42.337Z,8.40
2019-03-08T00:40:15.814Z,8.40
2019-03-08T00:40:49.333Z,8.40
2019-03-08T00:41:22.821Z,8.40
2019-03-08T00:41:56.305Z,8.40
2019-03-08T00:42:28.783Z,8.40
2019-03-08T00:43:01.277Z,8.30
2019-03-08T00:43:33.765Z,8.30
2019-03-08T00:44:06.252Z,8.30
2019-03-08T00:44:40.486Z,8.30
2019-03-08T00:45:12.982Z,8.30
2019-03-08T00:45:47.311Z,8.30
2019-03-08T00:46:20.106Z,8.30
2019-03-08T00:46:52.582Z,8.30
2019-03-08T00:47:25.085Z,8.30
2019-03-08T00:47:58.118Z,8.30
2019-03-08T00:48:36.137Z,8.30
2019-03-08T00:49:09.524Z,8.30
2019-03-08T00:49:44.281Z,8.30
2019-03-08T00:50:17.521Z,8.30
2019-03-08T00:50:51.972Z,8.30
2019-03-08T00:51:26.767Z,8.30
2019-03-08T00:51:59.842Z,8.30
2019-03-08T00:52:34.026Z,8.30
2019-03-08T00:53:08.039Z,8.20
2019-03-08T00:53:42.393Z,8.30
2019-03-08T00:54:15.273Z,8.20
2019-03-08T00:54:49.663Z,8.20
2019-03-08T00:55:22.909Z,8.20
2019-03-08T00:55:55.382Z,8.20
2019-03-08T00:56:27.877Z,8.30
2019-03-08T00:57:02.463Z,8.20
2019-03-08T00:57:36.350Z,8.20
2019-03-08T00:58:08.832Z,8.20
2019-03-08T00:58:42.165Z,8.30
2019-03-08T00:59:16.039Z,8.30
2019-03-08T00:59:50.361Z,8.30
2019-03-08T01:00:23.491Z,8.20
2019-03-08T01:00:56.350Z,8.20
2019-03-08T01:01:28.922Z,8.20
2019-03-08T01:02:02.296Z,8.20
2019-03-08T01:02:37.879Z,8.20
2019-03-08T01:03:10.897Z,8.20
2019-03-08T01:03:44.147Z,8.20
2019-03-08T01:04:18.346Z,8.20
2019-03-08T01:04:51.887Z,8.20
2019-03-08T01:05:25.991Z,8.20
2019-03-08T01:06:00.643Z,8.30
2019-03-08T01:06:33.575Z,8.30
2019-03-08T01:07:06.051Z,8.20
2019-03-08T01:07:39.293Z,8.20
2019-03-08T01:08:11.794Z,8.20
2019-03-08T01:08:44.288Z,8.20
2019-03-08T01:09:16.874Z,8.20
2019-03-08T01:09:49.552Z,8.20
2019-03-08T01:10:23.599Z,8.20
2019-03-08T01:10:57.099Z,8.20
2019-03-08T01:11:30.747Z,8.20
2019-03-08T01:12:03.216Z,8.20
2019-03-08T01:12:36.077Z,8.20
2019-03-08T01:13:09.036Z,8.20
2019-03-08T01:13:45.182Z,8.20
2019-03-08T01:14:18.576Z,8.20
2019-03-08T01:14:53.970Z,8.30
2019-03-08T01:15:26.657Z,8.20
2019-03-08T01:15:59.433Z,8.20
2019-03-08T01:16:32.635Z,8.20
2019-03-08T01:17:05.456Z,8.20
2019-03-08T01:17:39.171Z,8.20
2019-03-08T01:18:11.964Z,8.20
2019-03-08T01:18:44.434Z,8.20
2019-03-08T01:19:17.075Z,8.10
2019-03-08T01:19:49.551Z,8.10
2019-03-08T01:20:22.029Z,8.10
2019-03-08T01:20:54.499Z,8.10
2019-03-08T01:21:27.860Z,8.10
2019-03-08T01:22:02.312Z,8.20
2019-03-08T01:22:35.140Z,8.20
2019-03-08T01:23:08.497Z,8.20
2019-03-08T01:23:41.276Z,8.20
2019-03-08T01:24:14.344Z,8.10
2019-03-08T01:24:46.856Z,8.10
2019-03-08T01:25:21.489Z,8.10
2019-03-08T01:25:54.261Z,8.10
2019-03-08T01:26:28.127Z,8.10
2019-03-08T01:27:03.481Z,8.10
2019-03-08T01:27:36.751Z,8.10
2019-03-08T01:28:16.233Z,8.10
2019-03-08T01:28:50.965Z,8.00
2019-03-08T01:29:24.104Z,8.10
2019-03-08T01:29:58.332Z,8.10
2019-03-08T01:30:32.169Z,8.10
2019-03-08T01:31:06.328Z,8.10
2019-03-08T01:31:40.272Z,8.10
2019-03-08T01:32:13.267Z,8.10
2019-03-08T01:32:46.039Z,8.10
2019-03-08T01:33:18.522Z,8.20
2019-03-08T01:33:54.846Z,8.20
2019-03-08T01:34:28.778Z,8.20
2019-03-08T01:35:01.672Z,8.10
2019-03-08T01:35:35.702Z,8.10
2019-03-08T01:36:08.195Z,8.10
2019-03-08T01:36:42.041Z,8.10
2019-03-08T01:37:15.954Z,8.10
2019-03-08T01:37:50.825Z,8.10
2019-03-08T01:38:28.878Z,8.10
2019-03-08T01:39:01.372Z,8.10
2019-03-08T01:39:33.881Z,8.10
2019-03-08T01:40:08.260Z,8.10
2019-03-08T01:40:43.121Z,8.10
2019-03-08T01:41:18.044Z,8.10
2019-03-08T01:41:50.527Z,8.10
2019-03-08T01:42:29.125Z,8.10
2019-03-08T01:43:06.167Z,8.10
2019-03-08T01:43:40.038Z,8.10
2019-03-08T01:44:15.174Z,8.10
2019-03-08T01:44:48.028Z,8.10
2019-03-08T01:45:20.828Z,8.10
2019-03-08T01:45:57.257Z,8.20
2019-03-08T01:46:30.096Z,8.10
2019-03-08T01:47:02.574Z,8.20
2019-03-08T01:47:39.282Z,8.10
2019-03-08T01:48:17.066Z,8.10
2019-03-08T01:48:50.711Z,8.10
2019-03-08T01:49:26.148Z,8.10
2019-03-08T01:49:59.579Z,8.10
2019-03-08T01:50:34.053Z,8.10
2019-03-08T01:51:06.840Z,8.00
2019-03-08T01:51:41.248Z,8.10
2019-03-08T01:52:14.704Z,8.10
2019-03-08T01:52:47.935Z,8.10
2019-03-08T01:53:20.788Z,8.10
2019-03-08T01:53:54.041Z,8.10
2019-03-08T01:54:26.548Z,8.10
2019-03-08T01:54:59.367Z,8.10
2019-03-08T01:55:33.160Z,8.10
2019-03-08T01:56:05.644Z,8.10
2019-03-08T01:56:38.246Z,8.10
2019-03-08T01:57:15.407Z,8.10
2019-03-08T01:57:48.590Z,8.10
2019-03-08T01:58:23.705Z,8.10
2019-03-08T01:58:56.218Z,8.10
2019-03-08T01:59:29.909Z,8.10
2019-03-08T02:00:02.929Z,8.10
2019-03-08T02:00:35.672Z,8.10
2019-03-08T02:01:08.736Z,8.10
2019-03-08T02:01:41.727Z,8.10
2019-03-08T02:02:14.643Z,8.10
2019-03-08T02:02:47.364Z,8.10
2019-03-08T02:03:20.633Z,8.10
2019-03-08T02:03:53.111Z,8.10
2019-03-08T02:04:26.651Z,8.10
2019-03-08T02:04:59.777Z,8.10
2019-03-08T02:05:33.524Z,8.10
2019-03-08T02:06:07.048Z,8.10
2019-03-08T02:06:39.567Z,8.10
2019-03-08T02:07:14.560Z,8.10
2019-03-08T02:07:47.141Z,8.10
2019-03-08T02:08:19.622Z,8.10
2019-03-08T02:08:55.110Z,8.10
2019-03-08T02:09:27.596Z,8.10
2019-03-08T02:10:00.294Z,8.10
2019-03-08T02:10:33.214Z,8.10
2019-03-08T02:11:06.276Z,8.10
2019-03-08T02:11:39.508Z,8.10
2019-03-08T02:12:12.399Z,8.10
2019-03-08T02:12:45.303Z,8.10
2019-03-08T02:13:18.532Z,8.10
2019-03-08T02:13:52.332Z,8.10
2019-03-08T02:14:25.226Z,8.10
2019-03-08T02:15:00.539Z,8.10
2019-03-08T02:15:33.351Z,8.00
2019-03-08T02:16:07.620Z,8.10
2019-03-08T02:16:40.098Z,8.10
2019-03-08T02:17:12.581Z,8.10
2019-03-08T02:17:45.644Z,8.10
2019-03-08T02:18:18.133Z,8.10
2019-03-08T02:18:55.436Z,8.10
2019-03-08T02:19:28.747Z,8.10
2019-03-08T02:20:03.249Z,8.10
2019-03-08T02:20:37.376Z,8.10
2019-03-08T02:21:09.838Z,8.00
2019-03-08T02:21:42.314Z,8.10
2019-03-08T02:22:15.448Z,8.00
2019-03-08T02:22:48.141Z,8.00
2019-03-08T02:23:22.839Z,8.10
2019-03-08T02:23:55.874Z,8.00
2019-03-08T02:24:28.353Z,8.10
2019-03-08T02:25:01.137Z,8.10
2019-03-08T02:25:34.340Z,8.10
2019-03-08T02:26:07.152Z,8.10
2019-03-08T02:26:39.634Z,8.10
2019-03-08T02:27:12.121Z,8.00
2019-03-08T02:27:44.975Z,8.10
2019-03-08T02:28:20.621Z,8.10
2019-03-08T02:28:54.955Z,8.10
2019-03-08T02:29:31.918Z,8.10
2019-03-08T02:30:06.722Z,8.10
2019-03-08T02:30:39.567Z,8.10
2019-03-08T02:31:14.228Z,8.10
2019-03-08T02:31:48.489Z,8.10
2019-03-08T02:32:22.380Z,8.10
2019-03-08T02:32:55.498Z,8.00
2019-03-08T02:33:29.793Z,8.10
2019-03-08T02:34:03.816Z,8.00
2019-03-08T02:34:36.838Z,8.00
2019-03-08T02:35:10.762Z,8.00
2019-03-08T02:35:43.627Z,8.00
2019-03-08T02:36:18.034Z,8.00
2019-03-08T02:36:50.521Z,8.00
2019-03-08T02:37:24.530Z,8.00
2019-03-08T02:37:57.915Z,8.00
2019-03-08T02:38:30.928Z,8.00
2019-03-08T02:39:05.522Z,8.00
2019-03-08T02:39:39.457Z,8.00
2019-03-08T02:40:32.496Z,8.00
2019-03-08T02:41:05.183Z,8.00
2019-03-08T02:41:39.412Z,8.00
2019-03-08T02:42:14.254Z,7.90
2019-03-08T02:42:48.252Z,8.00
2019-03-08T02:43:21.188Z,8.00
2019-03-08T02:43:53.668Z,8.00
2019-03-08T02:44:26.139Z,8.00
2019-03-08T02:44:58.660Z,8.00
2019-03-08T02:45:32.151Z,8.00
2019-03-08T02:46:04.837Z,8.00
2019-03-08T02:46:38.653Z,7.90
2019-03-08T02:47:11.136Z,8.00
2019-03-08T02:47:44.711Z,8.00
2019-03-08T02:48:19.900Z,8.00
2019-03-08T02:48:52.718Z,8.00
2019-03-08T02:49:26.418Z,8.00
2019-03-08T02:49:58.898Z,8.00
2019-03-08T02:50:32.223Z,8.00
2019-03-08T02:51:05.549Z,8.00
2019-03-08T02:51:38.023Z,7.90
2019-03-08T02:52:11.148Z,8.00
2019-03-08T02:52:46.011Z,8.00
2019-03-08T02:53:18.611Z,8.00
2019-03-08T02:53:51.473Z,8.00
2019-03-08T02:54:28.059Z,8.00
2019-03-08T02:55:00.543Z,8.00
2019-03-08T02:55:37.692Z,8.00
2019-03-08T02:56:13.471Z,8.00
2019-03-08T02:56:46.954Z,8.00
2019-03-08T02:57:19.963Z,8.00
2019-03-08T02:57:52.456Z,8.00
2019-03-08T02:58:26.406Z,8.00
2019-03-08T02:58:59.642Z,8.00
2019-03-08T02:59:34.244Z,8.00
2019-03-08T03:00:09.387Z,8.00
2019-03-08T03:00:45.774Z,8.00
2019-03-08T03:01:18.624Z,8.00
2019-03-08T03:01:51.452Z,8.00
2019-03-08T03:02:23.927Z,8.00
2019-03-08T03:02:56.406Z,8.00
2019-03-08T03:03:33.360Z,8.00
2019-03-08T03:04:06.745Z,8.00
2019-03-08T03:04:39.948Z,8.00
2019-03-08T03:05:12.722Z,8.00
2019-03-08T03:05:45.679Z,8.00
2019-03-08T03:06:18.504Z,8.00
2019-03-08T03:06:50.986Z,8.00
2019-03-08T03:07:23.470Z,8.00
2019-03-08T03:07:56.309Z,8.00
2019-03-08T03:08:28.896Z,8.10
2019-03-08T03:09:01.379Z,8.00
2019-03-08T03:09:34.058Z,8.00
2019-03-08T03:10:06.748Z,8.00
2019-03-08T03:10:39.528Z,8.00
2019-03-08T03:11:12.010Z,8.00
2019-03-08T03:11:44.866Z,8.00
2019-03-08T03:12:17.345Z,8.00
2019-03-08T03:12:49.833Z,8.00
2019-03-08T03:13:22.332Z,8.00
2019-03-08T03:13:54.850Z,8.00
2019-03-08T03:14:28.057Z,8.00
2019-03-08T03:15:00.889Z,8.00
2019-03-08T03:15:34.437Z,8.00
2019-03-08T03:16:06.922Z,8.00
2019-03-08T03:16:39.407Z,8.00
2019-03-08T03:17:11.936Z,8.00
2019-03-08T03:17:44.799Z,8.00
2019-03-08T03:18:18.686Z,8.00
2019-03-08T03:18:51.458Z,8.00
2019-03-08T03:19:24.226Z,8.00
2019-03-08T03:19:56.716Z,8.00
2019-03-08T03:20:29.470Z,8.00
2019-03-08T03:21:02.519Z,8.00
2019-03-08T03:21:35.307Z,8.00
2019-03-08T03:22:08.711Z,8.00
2019-03-08T03:22:41.230Z,8.00
2019-03-08T03:23:14.536Z,8.00
2019-03-08T03:23:47.366Z,8.00
2019-03-08T03:24:20.163Z,8.00
2019-03-08T03:24:52.643Z,8.00
2019-03-08T03:25:25.136Z,8.00
2019-03-08T03:25:58.190Z,8.00
2019-03-08T03:26:31.034Z,8.00
2019-03-08T03:27:03.515Z,8.00
2019-03-08T03:27:36.148Z,8.10
2019-03-08T03:28:08.660Z,8.10
2019-03-08T03:28:41.144Z,8.10
2019-03-08T03:29:14.296Z,8.10
2019-03-08T03:29:46.812Z,8.10
2019-03-08T03:30:19.305Z,8.10
2019-03-08T03:30:51.785Z,8.10
2019-03-08T03:31:24.625Z,8.20
2019-03-08T03:31:57.448Z,8.10
2019-03-08T03:32:29.949Z,8.10
2019-03-08T03:33:02.426Z,8.20
2019-03-08T03:33:35.525Z,8.10
2019-03-08T03:34:08.012Z,8.20
2019-03-08T03:34:41.118Z,8.20
2019-03-08T03:35:13.900Z,8.20
2019-03-08T03:35:46.682Z,8.20
2019-03-08T03:36:19.158Z,8.20
2019-03-08T03:36:52.369Z,8.20
2019-03-08T03:37:24.862Z,8.20
2019-03-08T03:37:57.654Z,8.20
2019-03-08T03:38:30.432Z,8.20
2019-03-08T03:39:04.670Z,8.20
2019-03-08T03:39:37.164Z,8.20
2019-03-08T03:40:10.549Z,8.20
2019-03-08T03:40:43.031Z,8.20
2019-03-08T03:41:15.528Z,8.20
2019-03-08T03:41:48.020Z,8.20
2019-03-08T03:42:20.804Z,8.20
2019-03-08T03:42:53.687Z,8.20
2019-03-08T03:43:26.168Z,8.20
2019-03-08T03:43:59.110Z,8.20
2019-03-08T03:44:31.633Z,8.20
2019-03-08T03:45:05.129Z,8.10
2019-03-08T03:45:37.598Z,8.10
2019-03-08T03:46:10.593Z,8.10
2019-03-08T03:46:43.069Z,8.10
2019-03-08T03:47:15.860Z,8.10
2019-03-08T03:47:48.360Z,8.10
2019-03-08T03:48:20.839Z,8.10
2019-03-08T03:48:53.438Z,8.20
2019-03-08T03:49:25.915Z,8.20
2019-03-08T03:49:58.726Z,8.20
2019-03-08T03:50:31.571Z,8.20
2019-03-08T03:51:04.378Z,8.10
2019-03-08T03:51:37.138Z,8.10
2019-03-08T03:52:09.979Z,8.10
2019-03-08T03:52:42.778Z,8.10
2019-03-08T03:53:15.623Z,8.10
2019-03-08T03:53:48.442Z,8.10
2019-03-08T03:54:21.292Z,8.20
2019-03-08T03:54:53.938Z,8.10
2019-03-08T03:55:26.448Z,8.20
2019-03-08T03:55:58.944Z,8.10
2019-03-08T03:56:31.678Z,8.10
2019-03-08T03:57:04.434Z,8.10
2019-03-08T03:57:37.483Z,8.10
2019-03-08T03:58:09.947Z,8.10
2019-03-08T03:58:43.044Z,8.10
2019-03-08T03:59:15.895Z,8.10
2019-03-08T03:59:48.867Z,8.10
2019-03-08T04:00:21.442Z,8.10
2019-03-08T04:00:54.616Z,8.10
2019-03-08T04:01:33.824Z,8.10
2019-03-08T04:02:07.048Z,8.10
2019-03-08T04:02:39.523Z,8.10
2019-03-08T04:03:11.999Z,8.10
2019-03-08T04:03:44.504Z,8.10
2019-03-08T04:04:16.985Z,8.10
2019-03-08T04:04:49.469Z,8.10
2019-03-08T04:05:22.314Z,8.10
2019-03-08T04:05:55.154Z,8.10
2019-03-08T04:06:27.672Z,8.10
2019-03-08T04:07:00.461Z,8.10
2019-03-08T04:07:33.254Z,8.20
2019-03-08T04:08:06.033Z,8.20
2019-03-08T04:08:38.499Z,8.10
2019-03-08T04:09:12.014Z,8.10
2019-03-08T04:09:44.484Z,8.10
2019-03-08T04:10:17.692Z,8.20
2019-03-08T04:10:50.174Z,8.20
2019-03-08T04:11:22.647Z,8.20
2019-03-08T04:11:55.180Z,8.20
2019-03-08T04:12:27.872Z,8.20
2019-03-08T04:13:00.360Z,8.20
2019-03-08T04:13:33.138Z,8.20
2019-03-08T04:14:05.633Z,8.20
2019-03-08T04:14:38.102Z,8.20
2019-03-08T04:15:12.360Z,8.20
2019-03-08T04:15:45.232Z,8.20
2019-03-08T04:16:17.742Z,8.20
2019-03-08T04:16:50.564Z,8.20
2019-03-08T04:17:23.397Z,8.30
2019-03-08T04:17:56.162Z,8.20
2019-03-08T04:18:28.644Z,8.20
2019-03-08T04:19:01.591Z,8.20
2019-03-08T04:19:34.093Z,8.20
2019-03-08T04:20:08.786Z,8.20
2019-03-08T04:20:41.536Z,8.20
2019-03-08T04:21:14.692Z,8.20
2019-03-08T04:21:47.170Z,8.20
2019-03-08T04:22:19.950Z,8.20
2019-03-08T04:22:52.842Z,8.20
2019-03-08T04:23:25.326Z,8.20
2019-03-08T04:23:58.159Z,8.30
2019-03-08T04:24:30.984Z,8.30
2019-03-08T04:25:04.293Z,8.30
2019-03-08T04:25:37.088Z,8.30
2019-03-08T04:26:10.148Z,8.30
2019-03-08T04:26:42.670Z,8.20
2019-03-08T04:27:15.450Z,8.20
2019-03-08T04:27:48.775Z,8.20
2019-03-08T04:28:21.304Z,8.20
2019-03-08T04:28:53.793Z,8.20
2019-03-08T04:29:27.035Z,8.20
2019-03-08T04:29:59.507Z,8.20
2019-03-08T04:30:31.992Z,8.20
2019-03-08T04:31:04.481Z,8.20
2019-03-08T04:31:37.292Z,8.10
2019-03-08T04:32:10.074Z,8.20
2019-03-08T04:32:42.686Z,8.10
2019-03-08T04:33:15.162Z,8.10
2019-03-08T04:33:47.685Z,8.10
2019-03-08T04:34:20.545Z,8.10
2019-03-08T04:34:53.031Z,8.10
2019-03-08T04:35:25.503Z,8.10
2019-03-08T04:35:58.007Z,8.10
2019-03-08T04:36:30.804Z,8.10
2019-03-08T04:37:03.270Z,8.10
2019-03-08T04:37:36.065Z,8.10
2019-03-08T04:38:09.278Z,8.10
2019-03-08T04:38:42.055Z,8.10
2019-03-08T04:39:14.841Z,8.10
2019-03-08T04:39:47.612Z,8.10
2019-03-08T04:40:20.450Z,8.10
2019-03-08T04:40:52.922Z,8.10
2019-03-08T04:41:25.763Z,8.10
2019-03-08T04:41:58.247Z,8.10
2019-03-08T04:42:30.742Z,8.10
2019-03-08T04:43:03.600Z,8.10
2019-03-08T04:43:36.093Z,8.10
2019-03-08T04:44:08.975Z,8.10
2019-03-08T04:44:41.477Z,8.20
2019-03-08T04:45:14.095Z,8.10
2019-03-08T04:45:46.558Z,8.10
2019-03-08T04:46:19.397Z,8.10
2019-03-08T04:46:52.265Z,8.10
2019-03-08T04:47:24.760Z,8.10
2019-03-08T04:47:57.590Z,8.10
2019-03-08T04:48:30.436Z,8.00
2019-03-08T04:49:03.340Z,8.10
2019-03-08T04:49:35.888Z,8.10
2019-03-08T04:50:09.194Z,8.10
2019-03-08T04:50:41.690Z,8.10
2019-03-08T04:51:14.506Z,8.10
2019-03-08T04:51:46.998Z,8.10
2019-03-08T04:52:19.501Z,8.10
2019-03-08T04:52:51.976Z,8.10
2019-03-08T04:53:25.251Z,8.10
2019-03-08T04:53:57.726Z,8.10
2019-03-08T04:54:30.220Z,8.10
2019-03-08T04:55:02.786Z,8.10
2019-03-08T04:55:35.340Z,8.10
2019-03-08T04:56:08.413Z,8.10
2019-03-08T04:56:41.280Z,8.10
2019-03-08T04:57:13.773Z,8.10
2019-03-08T04:57:46.341Z,8.10
2019-03-08T04:58:18.840Z,8.10
2019-03-08T04:58:51.633Z,8.10
2019-03-08T04:59:24.106Z,8.10
2019-03-08T04:59:56.592Z,8.10
2019-03-08T05:00:29.727Z,8.10
2019-03-08T05:01:02.601Z,8.10
2019-03-08T05:01:35.271Z,8.10
2019-03-08T05:02:08.028Z,8.10
2019-03-08T05:02:40.723Z,8.10
2019-03-08T05:03:13.199Z,8.10
2019-03-08T05:03:45.692Z,8.10
2019-03-08T05:04:18.899Z,8.10
2019-03-08T05:04:51.382Z,8.10
2019-03-08T05:05:23.874Z,8.10
2019-03-08T05:05:56.351Z,8.10
2019-03-08T05:06:28.868Z,8.10
2019-03-08T05:07:01.751Z,8.00
2019-03-08T05:07:34.247Z,8.10
2019-03-08T05:08:06.727Z,8.10
2019-03-08T05:08:39.233Z,8.10
2019-03-08T05:09:11.771Z,8.10
2019-03-08T05:09:44.548Z,8.10
2019-03-08T05:10:17.244Z,8.10
2019-03-08T05:10:50.048Z,8.10
2019-03-08T05:11:22.836Z,8.10
2019-03-08T05:11:55.442Z,8.10
2019-03-08T05:12:28.041Z,8.10
2019-03-08T05:13:00.736Z,8.10
2019-03-08T05:13:33.216Z,8.10
2019-03-08T05:14:06.100Z,8.10
2019-03-08T05:14:38.595Z,8.10
2019-03-08T05:15:11.211Z,8.10
2019-03-08T05:15:43.681Z,8.10
2019-03-08T05:16:16.552Z,8.10
2019-03-08T05:16:49.050Z,8.10
2019-03-08T05:17:21.572Z,8.10
2019-03-08T05:17:54.428Z,8.10
2019-03-08T05:18:26.907Z,8.10
2019-03-08T05:18:59.390Z,8.10
2019-03-08T05:19:31.866Z,8.10
2019-03-08T05:20:05.293Z,8.10
2019-03-08T05:20:37.767Z,8.10
2019-03-08T05:21:10.620Z,8.10
2019-03-08T05:21:43.116Z,8.10
2019-03-08T05:22:15.604Z,8.10
2019-03-08T05:22:48.108Z,8.10
2019-03-08T05:23:21.094Z,8.10
2019-03-08T05:23:53.569Z,8.10
2019-03-08T05:24:26.685Z,8.10
2019-03-08T05:24:59.163Z,8.10
2019-03-08T05:25:31.656Z,8.10
2019-03-08T05:26:04.145Z,8.10
2019-03-08T05:26:36.624Z,8.10
2019-03-08T05:27:09.095Z,8.10
2019-03-08T05:27:41.911Z,8.20
2019-03-08T05:28:15.228Z,8.20
2019-03-08T05:28:47.707Z,8.20
2019-03-08T05:29:23.549Z,8.20
2019-03-08T05:29:54.878Z,8.20
2019-03-08T05:30:27.366Z,8.30
2019-03-08T05:31:00.453Z,8.30
2019-03-08T05:31:32.929Z,8.30
2019-03-08T05:32:06.079Z,8.30
2019-03-08T05:32:38.556Z,8.30
2019-03-08T05:33:11.048Z,8.30
2019-03-08T05:33:43.563Z,8.30
2019-03-08T05:34:16.048Z,8.30
2019-03-08T05:34:49.226Z,8.30
2019-03-08T05:35:22.082Z,8.30
2019-03-08T05:35:55.150Z,8.30
2019-03-08T05:36:27.922Z,8.30
2019-03-08T05:37:00.708Z,8.30
2019-03-08T05:37:33.282Z,8.30
2019-03-08T05:38:05.754Z,8.30
2019-03-08T05:38:38.255Z,8.30
2019-03-08T05:39:11.464Z,8.30
2019-03-08T05:39:44.207Z,8.30
2019-03-08T05:40:16.656Z,8.30
2019-03-08T05:40:49.133Z,8.30
2019-03-08T05:41:21.626Z,8.30
2019-03-08T05:41:54.120Z,8.30
2019-03-08T05:42:26.618Z,8.20
2019-03-08T05:42:59.100Z,8.20
2019-03-08T05:43:31.959Z,8.20
2019-03-08T05:44:04.749Z,8.20
2019-03-08T05:44:37.711Z,8.20
2019-03-08T05:45:10.537Z,8.20
2019-03-08T05:45:43.015Z,8.20
2019-03-08T05:46:15.562Z,8.10
2019-03-08T05:46:48.470Z,8.20
2019-03-08T05:47:21.155Z,8.10
2019-03-08T05:47:53.984Z,8.10
2019-03-08T05:48:26.784Z,8.20
2019-03-08T05:48:59.621Z,8.10
2019-03-08T05:49:32.693Z,8.20
2019-03-08T05:50:05.599Z,8.20
2019-03-08T05:50:38.087Z,8.20
2019-03-08T05:51:10.572Z,8.20
2019-03-08T05:51:43.347Z,8.20
2019-03-08T05:52:15.828Z,8.20
2019-03-08T05:52:48.617Z,8.30
2019-03-08T05:53:21.094Z,8.30
2019-03-08T05:53:53.880Z,8.30
2019-03-08T05:54:26.366Z,8.40
2019-03-08T05:54:58.847Z,8.40
2019-03-08T05:55:31.380Z,8.40
2019-03-08T05:56:03.880Z,8.40
2019-03-08T05:56:36.392Z,8.40
2019-03-08T05:57:09.256Z,8.40
2019-03-08T05:57:42.037Z,8.40
2019-03-08T05:58:15.208Z,8.40
2019-03-08T05:58:47.905Z,8.50
2019-03-08T05:59:20.397Z,8.50
2019-03-08T05:59:52.875Z,8.50
2019-03-08T06:00:31.828Z,8.50
2019-03-08T06:01:01.189Z,8.50
2019-03-08T06:01:33.676Z,8.50
2019-03-08T06:02:06.161Z,8.50
2019-03-08T06:02:38.657Z,8.50
2019-03-08T06:03:11.148Z,8.50
2019-03-08T06:03:43.638Z,8.50
2019-03-08T06:04:16.852Z,8.60
2019-03-08T06:04:49.340Z,8.50
2019-03-08T06:05:21.827Z,8.50
2019-03-08T06:05:54.314Z,8.60
2019-03-08T06:06:27.211Z,8.60
2019-03-08T06:06:59.701Z,8.60
2019-03-08T06:07:32.580Z,8.60
2019-03-08T06:08:05.068Z,8.60
2019-03-08T06:08:37.941Z,8.60
2019-03-08T06:09:10.516Z,8.60
2019-03-08T06:09:43.118Z,8.60
2019-03-08T06:10:29.515Z,8.60
2019-03-08T06:11:02.350Z,8.60
2019-03-08T06:11:34.877Z,8.70
2019-03-08T06:12:07.370Z,8.70
2019-03-08T06:12:40.154Z,8.70
2019-03-08T06:13:13.368Z,8.70
2019-03-08T06:13:46.051Z,8.70
2019-03-08T06:14:18.566Z,8.70
2019-03-08T06:14:51.340Z,8.70
2019-03-08T06:15:23.850Z,8.70
2019-03-08T06:15:56.332Z,8.70
2019-03-08T06:16:28.823Z,8.70
2019-03-08T06:17:01.687Z,8.70
2019-03-08T06:17:35.146Z,8.70
2019-03-08T06:18:07.653Z,8.70
2019-03-08T06:18:40.143Z,8.70
2019-03-08T06:19:13.395Z,8.70
2019-03-08T06:19:45.999Z,8.80
2019-03-08T06:20:18.484Z,8.80
2019-03-08T06:20:50.982Z,8.80
2019-03-08T06:21:23.466Z,8.80
2019-03-08T06:21:55.948Z,8.80
2019-03-08T06:22:28.743Z,8.80
2019-03-08T06:23:01.220Z,8.80
2019-03-08T06:23:33.712Z,8.80
2019-03-08T06:24:06.652Z,8.80
2019-03-08T06:25:12.937Z,8.80
2019-03-08T06:25:45.439Z,8.80
2019-03-08T06:26:18.527Z,8.80
2019-03-08T06:26:51.303Z,8.80
2019-03-08T06:27:23.994Z,8.80
2019-03-08T06:27:56.804Z,8.90
2019-03-08T06:28:29.630Z,8.90
2019-03-08T06:29:02.124Z,8.90
2019-03-08T06:29:34.609Z,8.90
2019-03-08T06:30:07.471Z,8.90
2019-03-08T06:30:40.074Z,8.90
2019-03-08T06:31:12.570Z,8.90
2019-03-08T06:31:45.809Z,8.90
2019-03-08T06:32:18.289Z,8.90
2019-03-08T06:32:51.176Z,8.90
2019-03-08T06:33:24.012Z,9.00
2019-03-08T06:33:56.510Z,9.00
2019-03-08T06:34:29.000Z,9.00
2019-03-08T06:35:02.220Z,9.00
2019-03-08T06:35:34.696Z,9.00
2019-03-08T06:36:07.178Z,9.00
2019-03-08T06:36:40.318Z,9.00
2019-03-08T06:37:13.123Z,9.00
2019-03-08T06:37:45.622Z,9.00
2019-03-08T06:38:18.128Z,9.00
2019-03-08T06:38:51.050Z,9.00
2019-03-08T06:39:23.568Z,9.00
2019-03-08T06:39:56.071Z,9.00
2019-03-08T06:40:28.578Z,9.00
2019-03-08T06:41:01.086Z,9.00
2019-03-08T06:41:33.582Z,9.00
2019-03-08T06:42:06.084Z,9.00
2019-03-08T06:42:38.892Z,9.00
2019-03-08T06:43:11.782Z,9.00
2019-03-08T06:43:44.288Z,9.00
2019-03-08T06:44:17.094Z,9.00
2019-03-08T06:44:51.086Z,9.00
2019-03-08T06:45:26.703Z,9.00
2019-03-08T06:46:00.722Z,9.00
2019-03-08T06:46:33.546Z,9.10
2019-03-08T06:47:07.003Z,9.00
2019-03-08T06:47:40.026Z,9.00
2019-03-08T06:48:14.609Z,9.10
2019-03-08T06:48:50.224Z,9.00
2019-03-08T06:49:23.100Z,9.10
2019-03-08T06:49:55.579Z,9.00
2019-03-08T06:50:29.307Z,9.00
2019-03-08T06:51:02.073Z,9.10
2019-03-08T06:51:34.652Z,9.10
2019-03-08T06:52:08.526Z,9.10
2019-03-08T06:52:44.377Z,9.10
2019-03-08T06:53:18.006Z,9.10
2019-03-08T06:53:51.322Z,9.10
2019-03-08T06:54:25.253Z,9.10
2019-03-08T06:54:57.968Z,9.10
2019-03-08T06:55:30.896Z,9.10
2019-03-08T06:56:04.028Z,9.10
2019-03-08T06:56:36.524Z,9.10
2019-03-08T06:57:11.448Z,9.10
2019-03-08T06:57:45.026Z,9.20
2019-03-08T06:58:28.465Z,9.20
2019-03-08T06:59:20.431Z,9.20
2019-03-08T07:00:01.104Z,9.30
2019-03-08T07:01:00.500Z,9.30
2019-03-08T07:01:36.206Z,9.30
2019-03-08T07:02:10.594Z,9.20
2019-03-08T07:02:43.521Z,9.20
2019-03-08T07:03:16.006Z,9.20
2019-03-08T07:03:49.509Z,9.30
2019-03-08T07:04:22.375Z,9.30
2019-03-08T07:04:55.602Z,9.30
2019-03-08T07:05:28.444Z,9.30
2019-03-08T07:06:00.924Z,9.30
2019-03-08T07:06:33.790Z,9.40
2019-03-08T07:07:06.601Z,9.40
2019-03-08T07:07:39.538Z,9.40
2019-03-08T07:08:13.681Z,9.40
2019-03-08T07:08:48.545Z,9.40
2019-03-08T07:09:21.034Z,9.40
2019-03-08T07:09:54.829Z,9.40
2019-03-08T07:10:28.419Z,9.50
2019-03-08T07:11:01.119Z,9.50
2019-03-08T07:11:34.857Z,9.50
2019-03-08T07:12:12.417Z,9.50
2019-03-08T07:12:44.900Z,9.50
2019-03-08T07:13:19.327Z,9.50
2019-03-08T07:13:54.936Z,9.50
2019-03-08T07:14:28.379Z,9.50
2019-03-08T07:15:02.035Z,9.50
2019-03-08T07:15:37.106Z,9.50
2019-03-08T07:16:13.156Z,9.60
2019-03-08T07:16:45.703Z,9.60
2019-03-08T07:17:18.164Z,9.60
2019-03-08T07:18:12.608Z,9.60
2019-03-08T07:18:40.631Z,9.60
2019-03-08T07:19:13.128Z,9.60
2019-03-08T07:19:55.044Z,9.60
2019-03-08T07:20:47.016Z,9.60
2019-03-08T07:21:32.091Z,9.70
2019-03-08T07:22:30.163Z,9.70
2019-03-08T07:23:28.132Z,9.70
2019-03-08T07:24:25.683Z,9.80
2019-03-08T07:25:16.306Z,9.80
2019-03-08T07:26:11.884Z,9.80
2019-03-08T07:27:04.221Z,9.90